Time;durP1;ratioP1;P1;durP2;ratioP2;P2;SDS_P1;SDS_P2;PMS_P1;PMS_P2;Temp;Humidity;BMP_temperature;BMP_pressure;BME280_temperature;BME280_humidity;BME280_pressure;Samples;Min_cycle;Max_cycle;Signal;HPM_P1;HPM_P2
2022/03/28 00:01:18;;;;;;;28.60;12.18;;;3.70;84.50;;;;;;5047353;28;20094;-86
2022/03/28 00:03:44;;;;;;;32.45;14.13;;;3.80;81.50;;;;;;5049038;28;20527;-85
2022/03/28 00:06:10;;;;;;;28.27;11.10;;;3.70;79.00;;;;;;5048952;28;20033;-86
2022/03/28 00:08:39;;;;;;;33.50;14.90;;;3.60;79.40;;;;;;5049077;28;20392;-86
2022/03/28 00:11:08;;;;;;;31.60;13.48;;;3.50;81.20;;;;;;5047076;28;20029;-86
2022/03/28 00:13:35;;;;;;;35.35;12.48;;;3.50;79.90;;;;;;5047854;28;20025;-87
2022/03/28 00:16:02;;;;;;;28.58;11.63;;;3.40;79.60;;;;;;5047312;28;20044;-85
2022/03/28 00:18:28;;;;;;;33.60;13.95;;;3.40;80.30;;;;;;5048009;28;20033;-87
2022/03/28 00:20:55;;;;;;;28.92;12.23;;;3.40;81.50;;;;;;5047143;28;20487;-86
2022/03/28 00:23:21;;;;;;;23.98;11.98;;;3.60;80.40;;;;;;5047299;28;20045;-86
2022/03/28 00:25:47;;;;;;;31.50;12.07;;;3.50;78.40;;;;;;5047449;28;20534;-86
2022/03/28 00:28:14;;;;;;;30.00;11.63;;;3.40;77.60;;;;;;5048393;28;20088;-85
2022/03/28 00:30:40;;;;;;;30.02;12.45;;;3.30;80.00;;;;;;5047865;28;20112;-88
2022/03/28 00:33:06;;;;;;;23.85;13.13;;;3.20;79.70;;;;;;5047519;28;20472;-86
2022/03/28 00:35:32;;;;;;;33.45;12.30;;;3.20;81.40;;;;;;5063970;28;20048;-85
2022/03/28 00:37:58;;;;;;;31.55;13.25;;;3.10;81.00;;;;;;5049071;28;20036;-87
2022/03/28 00:40:27;;;;;;;29.85;12.57;;;3.10;80.60;;;;;;5047354;28;20041;-86
2022/03/28 00:42:54;;;;;;;29.42;13.68;;;3.10;82.50;;;;;;5048204;28;20082;-85
2022/03/28 00:45:20;;;;;;;28.92;13.35;;;3.00;81.30;;;;;;5047799;28;20546;-87
2022/03/28 00:47:45;;;;;;;29.70;13.43;;;3.00;82.00;;;;;;5047405;28;20033;-87
2022/03/28 00:50:11;;;;;;;28.52;12.48;;;2.90;82.40;;;;;;5048739;28;20025;-86
2022/03/28 00:52:39;;;;;;;34.53;14.93;;;3.00;83.80;;;;;;5051411;28;20494;-85
2022/03/28 00:55:06;;;;;;;28.95;12.77;;;3.00;83.30;;;;;;5047994;28;20021;-85
2022/03/28 00:57:32;;;;;;;28.10;13.65;;;2.90;82.90;;;;;;5051246;28;20043;-85
2022/03/28 00:59:59;;;;;;;36.35;12.82;;;3.00;84.40;;;;;;5051767;28;20021;-87
2022/03/28 01:02:25;;;;;;;33.33;14.45;;;3.10;83.70;;;;;;5051083;28;20484;-85
2022/03/28 01:04:51;;;;;;;33.42;12.27;;;3.20;85.00;;;;;;5042059;28;20112;-87
2022/03/28 01:07:20;;;;;;;38.00;14.18;;;3.00;84.00;;;;;;5051143;28;20100;-85
2022/03/28 01:09:45;;;;;;;26.17;13.13;;;2.90;83.40;;;;;;5050864;28;20477;-86
2022/03/28 01:12:12;;;;;;;39.90;13.55;;;2.80;85.30;;;;;;5051605;28;20029;-86
2022/03/28 01:14:38;;;;;;;30.35;12.55;;;2.80;85.90;;;;;;5051508;28;20418;-86
2022/03/28 01:19:55;;;;;;;31.95;14.25;;;2.60;87.90;;;;;;5050216;28;20167;-87
2022/03/28 01:22:21;;;;;;;33.90;14.20;;;2.50;90.80;;;;;;5051751;28;20428;-87
2022/03/28 01:24:47;;;;;;;28.65;11.80;;;2.60;90.30;;;;;;5051498;28;20033;-86
2022/03/28 01:27:14;;;;;;;27.23;12.75;;;2.60;90.20;;;;;;5050402;28;20041;-88
2022/03/28 01:29:43;;;;;;;30.70;13.18;;;2.60;88.80;;;;;;5051544;28;20021;-88
2022/03/28 01:32:09;;;;;;;27.15;11.98;;;2.50;89.90;;;;;;5045079;28;20057;-85
2022/03/28 01:34:34;;;;;;;29.83;12.25;;;2.50;90.00;;;;;;5051368;28;20464;-85
2022/03/28 01:37:00;;;;;;;43.78;13.85;;;2.50;89.50;;;;;;5051301;28;20039;-87
2022/03/28 01:39:26;;;;;;;31.90;13.75;;;2.60;88.90;;;;;;5048245;28;20434;-87
2022/03/28 01:41:52;;;;;;;34.78;13.27;;;2.80;89.40;;;;;;5051469;28;20645;-86
2022/03/28 01:44:18;;;;;;;31.92;13.40;;;2.90;87.60;;;;;;5049980;28;20044;-85
2022/03/28 01:46:46;;;;;;;33.53;14.90;;;2.90;86.60;;;;;;5051052;28;20032;-86
2022/03/28 01:49:16;;;;;;;30.98;13.95;;;2.90;88.10;;;;;;5049496;28;20480;-86
2022/03/28 01:51:42;;;;;;;29.25;13.07;;;2.80;89.10;;;;;;5049704;28;20048;-87
2022/03/28 01:54:08;;;;;;;34.88;15.02;;;2.70;88.70;;;;;;5051059;28;20029;-87
2022/03/28 01:56:36;;;;;;;29.48;13.55;;;2.60;88.00;;;;;;5050025;28;20752;-86
2022/03/28 01:59:02;;;;;;;33.90;13.75;;;2.50;89.70;;;;;;5031484;28;20063;-87
2022/03/28 02:01:28;;;;;;;34.20;15.23;;;2.50;90.30;;;;;;5048859;28;20690;-86
2022/03/28 02:03:54;;;;;;;24.30;12.35;;;2.50;90.60;;;;;;5050790;28;20037;-86
2022/03/28 02:06:20;;;;;;;33.13;14.68;;;2.60;90.60;;;;;;5049686;28;20044;-88
2022/03/28 02:08:45;;;;;;;33.78;12.38;;;2.60;90.20;;;;;;5051496;28;20041;-87
2022/03/28 02:11:11;;;;;;;35.95;14.23;;;2.50;91.00;;;;;;5050127;28;20032;-83
2022/03/28 02:13:36;;;;;;;35.53;13.82;;;2.50;91.10;;;;;;5049746;28;20071;-88
2022/03/28 02:16:03;;;;;;;31.70;12.63;;;2.40;90.60;;;;;;5049597;28;20059;-87
2022/03/28 02:18:28;;;;;;;28.10;13.70;;;2.30;91.10;;;;;;5050517;28;20029;-86
2022/03/28 02:20:54;;;;;;;31.48;12.32;;;2.30;90.90;;;;;;5050400;28;20036;-83
2022/03/28 02:23:20;;;;;;;33.45;14.32;;;2.30;90.70;;;;;;5049378;28;20063;-88
2022/03/28 02:25:46;;;;;;;27.75;13.07;;;2.30;92.30;;;;;;5051061;28;20037;-88
2022/03/28 02:28:13;;;;;;;29.65;11.20;;;2.40;91.70;;;;;;5049522;28;20053;-81
2022/03/28 02:30:39;;;;;;;31.08;13.02;;;2.40;92.20;;;;;;5049878;28;20029;-81
2022/03/28 02:33:06;;;;;;;26.80;12.38;;;2.40;92.10;;;;;;5049503;28;20368;-87
2022/03/28 02:35:32;;;;;;;27.73;13.40;;;2.30;92.40;;;;;;5049689;28;20029;-81
2022/03/28 02:38:01;;;;;;;39.50;14.02;;;2.20;91.90;;;;;;5050355;28;20037;-84
2022/03/28 02:40:28;;;;;;;27.60;12.02;;;2.10;92.50;;;;;;5049965;28;20044;-85
2022/03/28 02:42:57;;;;;;;31.90;12.55;;;2.10;93.00;;;;;;5049642;28;20029;-86
2022/03/28 02:45:23;;;;;;;42.67;13.23;;;2.10;93.20;;;;;;5050133;28;20198;-87
2022/03/28 02:47:49;;;;;;;25.23;12.43;;;2.20;93.10;;;;;;5050063;28;20475;-86
2022/03/28 02:50:14;;;;;;;27.13;12.80;;;2.10;92.70;;;;;;5050442;28;20056;-85
2022/03/28 02:52:40;;;;;;;28.80;13.60;;;1.90;93.60;;;;;;5049643;28;20029;-86
2022/03/28 02:55:06;;;;;;;29.77;11.48;;;1.80;93.10;;;;;;5048559;28;20487;-89
2022/03/28 02:57:32;;;;;;;27.08;14.63;;;1.90;93.70;;;;;;5049950;28;20981;-87
2022/03/28 02:59:58;;;;;;;32.72;12.98;;;1.80;93.90;;;;;;5049771;28;20108;-86
2022/03/28 03:02:24;;;;;;;29.92;13.07;;;1.80;94.00;;;;;;5049097;28;20037;-86
2022/03/28 03:04:49;;;;;;;33.22;13.85;;;1.90;94.00;;;;;;5049743;28;20040;-88
2022/03/28 03:07:15;;;;;;;26.08;11.05;;;1.80;93.90;;;;;;5047196;28;20488;-85
2022/03/28 03:09:41;;;;;;;28.30;11.38;;;1.60;94.80;;;;;;5049290;28;20029;-86
2022/03/28 03:12:07;;;;;;;35.67;14.73;;;1.50;93.80;;;;;;5048000;28;20031;-88
2022/03/28 03:14:33;;;;;;;33.17;12.52;;;1.40;94.80;;;;;;5047205;28;20116;-86
2022/03/28 03:16:59;;;;;;;31.45;14.88;;;1.40;94.80;;;;;;5048694;28;20104;-87
2022/03/28 03:19:24;;;;;;;30.23;12.27;;;1.40;95.30;;;;;;5049046;28;20037;-88
2022/03/28 03:21:50;;;;;;;26.73;12.38;;;1.30;95.20;;;;;;5015394;28;20422;-88
2022/03/28 03:24:16;;;;;;;34.17;14.85;;;1.30;95.70;;;;;;5049569;28;20080;-88
2022/03/28 03:26:42;;;;;;;37.40;16.58;;;1.30;95.60;;;;;;5049312;28;20895;-87
2022/03/28 03:29:08;;;;;;;32.70;13.70;;;1.30;96.10;;;;;;5047786;28;20095;-89
2022/03/28 03:31:34;;;;;;;34.60;15.77;;;1.20;96.10;;;;;;5048850;28;20033;-86
2022/03/28 03:33:59;;;;;;;35.97;14.20;;;1.00;97.10;;;;;;5049429;28;20083;-87
2022/03/28 03:36:25;;;;;;;28.13;15.38;;;1.00;96.90;;;;;;5049518;28;20021;-88
2022/03/28 03:38:51;;;;;;;29.98;14.52;;;0.90;97.10;;;;;;5048988;28;20055;-88
2022/03/28 03:41:17;;;;;;;37.20;15.50;;;0.90;97.70;;;;;;5049020;28;20037;-88
2022/03/28 03:43:44;;;;;;;28.75;12.60;;;0.80;99.00;;;;;;5049741;28;20124;-89
2022/03/28 03:46:10;;;;;;;36.13;15.65;;;0.80;98.40;;;;;;5049833;28;20662;-87
2022/03/28 03:48:36;;;;;;;37.17;15.80;;;1.20;98.20;;;;;;5049737;28;20040;-87
2022/03/28 03:51:02;;;;;;;34.88;13.10;;;1.50;96.70;;;;;;5048972;28;20083;-88
2022/03/28 03:53:28;;;;;;;35.13;15.00;;;1.30;96.80;;;;;;5050005;28;20044;-89
2022/03/28 03:55:53;;;;;;;31.70;13.80;;;1.30;97.40;;;;;;5049501;28;20059;-84
2022/03/28 03:58:19;;;;;;;33.03;15.40;;;1.30;97.60;;;;;;5049412;28;20061;-88
2022/03/28 04:00:45;;;;;;;36.25;15.07;;;1.20;98.20;;;;;;5047349;28;20029;-86
2022/03/28 04:03:10;;;;;;;39.55;16.20;;;1.40;97.40;;;;;;5046886;28;20040;-88
2022/03/28 04:05:37;;;;;;;34.08;15.13;;;1.30;97.10;;;;;;5048482;28;20090;-88
2022/03/28 04:08:05;;;;;;;32.72;13.05;;;1.30;97.20;;;;;;5048243;28;20036;-88
2022/03/28 04:10:32;;;;;;;45.95;15.68;;;1.20;97.50;;;;;;5049020;28;20028;-89
2022/03/28 04:12:58;;;;;;;34.70;16.13;;;1.30;97.30;;;;;;5049021;28;20106;-89
2022/03/28 04:15:23;;;;;;;43.30;19.50;;;1.60;96.80;;;;;;5048180;28;20517;-88
2022/03/28 04:17:49;;;;;;;34.35;14.57;;;1.60;96.70;;;;;;5049364;28;20131;-90
2022/03/28 04:20:16;;;;;;;33.33;15.45;;;1.50;96.70;;;;;;5048766;28;20389;-88
2022/03/28 04:22:42;;;;;;;38.25;13.40;;;1.50;97.00;;;;;;5047578;28;20048;-88
2022/03/28 04:25:09;;;;;;;37.35;15.15;;;1.60;97.20;;;;;;5048909;28;20035;-89
2022/03/28 04:27:36;;;;;;;31.42;12.88;;;1.60;96.50;;;;;;5050535;28;20124;-88
2022/03/28 04:30:07;;;;;;;34.90;14.68;;;1.60;96.70;;;;;;5052148;28;20520;-89
2022/03/28 04:32:33;;;;;;;;;;;1.70;96.20;;;;;;5051941;28;20039;-89
2022/03/28 04:34:59;;;;;;;33.50;13.60;;;1.80;95.30;;;;;;5053346;28;19909;-89
2022/03/28 04:37:25;;;;;;;39.60;13.90;;;1.70;95.30;;;;;;5051221;28;20040;-89
2022/03/28 04:39:50;;;;;;;42.08;14.60;;;1.70;95.20;;;;;;5051723;28;20024;-89
2022/03/28 04:42:16;;;;;;;27.27;12.52;;;1.50;95.40;;;;;;5051435;28;20119;-89
2022/03/28 04:44:42;;;;;;;27.65;13.38;;;1.50;95.80;;;;;;5051005;28;20032;-89
2022/03/28 04:47:08;;;;;;;31.75;14.73;;;1.30;96.40;;;;;;5049911;28;20033;-90
2022/03/28 04:49:34;;;;;;;36.47;15.48;;;1.40;96.60;;;;;;5049752;28;20116;-89
2022/03/28 04:51:59;;;;;;;36.90;15.57;;;1.20;96.90;;;;;;5052484;28;20100;-87
2022/03/28 04:54:25;;;;;;;39.83;15.60;;;1.20;97.20;;;;;;5034193;28;20035;-87
2022/03/28 04:56:51;;;;;;;36.03;15.38;;;1.30;97.30;;;;;;5052177;28;20037;-87
2022/03/28 04:59:16;;;;;;;35.72;13.35;;;1.30;97.00;;;;;;5052294;28;20035;-88
2022/03/28 05:01:42;;;;;;;31.67;14.07;;;1.20;96.90;;;;;;5048558;28;20037;-89
2022/03/28 05:04:08;;;;;;;33.33;16.23;;;1.00;97.30;;;;;;5033950;28;20124;-88
2022/03/28 05:06:33;;;;;;;33.55;13.50;;;0.90;97.40;;;;;;5051516;28;20045;-87
2022/03/28 05:08:59;;;;;;;31.35;14.38;;;0.70;98.60;;;;;;5036829;28;20034;-87
2022/03/28 05:11:25;;;;;;;31.35;13.65;;;0.70;99.00;;;;;;5042376;28;20078;-87
2022/03/28 05:13:51;;;;;;;29.10;14.77;;;1.00;98.10;;;;;;5051898;28;20037;-87
2022/03/28 05:16:17;;;;;;;34.03;14.85;;;1.20;97.80;;;;;;5049345;28;20395;-88
2022/03/28 05:18:43;;;;;;;38.38;16.75;;;1.20;97.60;;;;;;5051806;28;20017;-87
2022/03/28 05:21:09;;;;;;;36.25;13.93;;;1.50;96.60;;;;;;5051852;28;20114;-88
2022/03/28 05:23:35;;;;;;;31.88;14.02;;;1.50;96.30;;;;;;5051425;28;20060;-89
2022/03/28 05:26:02;;;;;;;35.97;16.77;;;1.60;95.90;;;;;;5048824;28;20044;-82
2022/03/28 05:28:28;;;;;;;37.78;14.98;;;1.50;95.50;;;;;;5045289;28;20049;-88
2022/03/28 05:30:54;;;;;;;32.92;13.95;;;1.40;95.60;;;;;;5048763;28;20059;-89
2022/03/28 05:33:21;;;;;;;40.03;15.68;;;1.20;96.50;;;;;;5045981;28;20148;-88
2022/03/28 05:35:46;;;;;;;40.95;14.95;;;1.20;97.10;;;;;;5049513;28;20025;-83
2022/03/28 05:38:12;;;;;;;32.88;14.60;;;1.20;96.90;;;;;;5049001;28;20033;-85
2022/03/28 05:40:38;;;;;;;34.08;16.13;;;1.30;96.80;;;;;;5049547;28;20104;-87
2022/03/28 05:43:04;;;;;;;36.00;13.52;;;1.50;96.20;;;;;;5048101;28;20033;-88
2022/03/28 05:45:30;;;;;;;28.70;12.85;;;1.60;95.40;;;;;;5050854;28;20492;-88
2022/03/28 05:47:55;;;;;;;27.90;13.45;;;1.60;95.20;;;;;;5051261;28;20364;-87
2022/03/28 05:50:22;;;;;;;30.20;14.32;;;1.50;96.00;;;;;;5050452;28;20036;-85
2022/03/28 05:52:48;;;;;;;33.17;14.98;;;1.50;96.30;;;;;;5049793;28;20025;-88
2022/03/28 05:55:14;;;;;;;36.83;15.68;;;1.50;96.00;;;;;;5051476;28;20025;-86
2022/03/28 05:57:40;;;;;;;32.25;14.93;;;1.50;96.00;;;;;;5051247;28;20496;-86
2022/03/28 06:00:09;;;;;;;37.17;16.08;;;1.50;96.30;;;;;;5050277;28;20447;-88
2022/03/28 06:02:36;;;;;;;33.35;14.93;;;1.50;96.50;;;;;;5049545;28;20480;-84
2022/03/28 06:05:02;;;;;;;35.92;14.80;;;1.50;96.20;;;;;;5050799;28;20024;-87
2022/03/28 06:07:28;;;;;;;40.85;16.02;;;1.60;96.00;;;;;;5049997;28;20037;-90
2022/03/28 06:09:54;;;;;;;29.38;14.02;;;1.70;96.10;;;;;;5049827;28;20423;-85
2022/03/28 06:12:19;;;;;;;34.25;16.90;;;1.70;96.00;;;;;;5047834;28;20029;-86
2022/03/28 06:14:45;;;;;;;29.02;13.75;;;1.70;96.00;;;;;;5049867;28;20626;-87
2022/03/28 06:17:25;;;;;;;34.85;15.40;;;1.80;95.70;;;;;;5041363;28;20123;-86
2022/03/28 06:19:52;;;;;;;31.13;14.40;;;2.00;94.90;;;;;;5048063;28;20033;-88
2022/03/28 06:22:18;;;;;;;36.55;16.20;;;2.20;94.10;;;;;;5049233;28;20033;-88
2022/03/28 06:24:45;;;;;;;35.88;15.75;;;2.40;93.80;;;;;;5049707;28;20112;-86
2022/03/28 06:27:11;;;;;;;39.42;14.25;;;2.60;93.80;;;;;;5049658;28;20057;-86
2022/03/28 06:29:37;;;;;;;35.88;15.75;;;2.70;93.10;;;;;;5048821;28;20159;-86
2022/03/28 06:32:04;;;;;;;34.22;17.58;;;2.80;93.10;;;;;;5049258;28;20119;-86
2022/03/28 06:34:30;;;;;;;30.23;14.98;;;2.90;92.90;;;;;;5048663;28;20025;-86
2022/03/28 06:36:56;;;;;;;25.83;13.20;;;3.20;92.50;;;;;;5049033;28;20047;-85
2022/03/28 06:39:22;;;;;;;36.10;14.85;;;3.30;91.70;;;;;;5047037;28;20060;-86
2022/03/28 06:41:48;;;;;;;25.27;12.40;;;3.40;92.10;;;;;;5046965;28;20036;-85
2022/03/28 06:44:13;;;;;;;33.35;14.75;;;3.60;91.60;;;;;;5048824;28;20033;-86
2022/03/28 06:46:44;;;;;;;40.03;15.95;;;3.90;91.40;;;;;;5049753;28;20711;-86
2022/03/28 06:49:10;;;;;;;34.45;14.30;;;4.10;90.70;;;;;;5049207;28;20029;-86
2022/03/28 06:51:36;;;;;;;28.50;13.25;;;4.30;89.30;;;;;;5047023;28;20029;-85
2022/03/28 06:54:04;;;;;;;48.67;13.65;;;4.50;87.60;;;;;;5046565;28;20393;-85
2022/03/28 06:56:30;;;;;;;31.63;13.90;;;4.60;86.70;;;;;;5048317;28;20803;-85
2022/03/28 06:58:56;;;;;;;31.30;14.65;;;4.80;86.10;;;;;;5048343;28;20029;-85
2022/03/28 07:01:22;;;;;;;33.17;14.02;;;5.00;85.90;;;;;;5043424;28;20041;-83
2022/03/28 07:03:47;;;;;;;37.03;14.65;;;5.10;85.40;;;;;;5048944;28;20032;-82
2022/03/28 07:06:13;;;;;;;43.80;15.57;;;5.20;84.40;;;;;;5041694;28;20391;-85
2022/03/28 07:08:39;;;;;;;27.05;13.73;;;5.30;83.80;;;;;;5047728;28;20037;-85
2022/03/28 07:11:04;;;;;;;28.92;17.30;;;5.40;83.80;;;;;;5048968;28;20641;-85
2022/03/28 07:13:30;;;;;;;34.25;13.77;;;5.50;83.60;;;;;;5048788;28;20480;-86
2022/03/28 07:15:56;;;;;;;45.97;18.25;;;5.70;82.10;;;;;;5047361;28;20040;-84
2022/03/28 07:18:22;;;;;;;35.35;16.23;;;5.90;81.70;;;;;;5044478;28;20468;-82
2022/03/28 07:20:50;;;;;;;30.92;14.60;;;6.10;80.50;;;;;;5048318;28;20215;-82
2022/03/28 07:23:17;;;;;;;30.88;13.40;;;6.20;80.70;;;;;;5048482;28;20040;-84
2022/03/28 07:25:43;;;;;;;33.28;15.15;;;6.30;80.90;;;;;;5047892;28;20025;-85
2022/03/28 07:28:10;;;;;;;28.52;15.00;;;6.40;82.20;;;;;;5046852;28;20064;-84
2022/03/28 07:30:37;;;;;;;31.85;15.45;;;6.60;81.00;;;;;;5042877;28;20484;-83
2022/03/28 07:33:03;;;;;;;34.72;15.10;;;6.70;81.60;;;;;;5043086;28;20036;-84
2022/03/28 07:35:31;;;;;;;33.35;14.93;;;6.90;81.00;;;;;;5047047;28;20539;-84
2022/03/28 07:37:57;;;;;;;34.67;14.23;;;7.10;79.60;;;;;;5043751;28;20057;-84
2022/03/28 07:40:23;;;;;;;30.25;14.27;;;7.40;81.00;;;;;;5048800;28;20106;-84
2022/03/28 07:42:48;;;;;;;31.40;15.40;;;7.50;79.30;;;;;;5045679;28;20044;-83
2022/03/28 07:45:14;;;;;;;29.65;14.65;;;7.70;78.50;;;;;;5028225;28;20423;-83
2022/03/28 07:47:41;;;;;;;33.35;16.52;;;7.90;78.40;;;;;;5048332;28;20125;-83
2022/03/28 07:50:08;;;;;;;33.97;14.20;;;8.10;77.20;;;;;;5046516;28;20040;-83
2022/03/28 07:52:34;;;;;;;36.15;16.95;;;8.20;75.70;;;;;;5048367;28;20021;-82
2022/03/28 07:55:01;;;;;;;33.80;17.67;;;8.30;76.00;;;;;;5047680;28;20389;-83
2022/03/28 07:57:27;;;;;;;37.13;16.30;;;8.50;74.00;;;;;;5047906;28;20075;-83
2022/03/28 07:59:53;;;;;;;29.67;16.10;;;8.70;76.30;;;;;;5045480;28;20021;-82
2022/03/28 08:02:18;;;;;;;39.58;17.60;;;8.90;74.70;;;;;;5050114;28;20044;-83
2022/03/28 08:04:47;;;;;;;32.45;16.25;;;9.10;73.00;;;;;;5051814;28;20027;-82
2022/03/28 08:07:13;;;;;;;32.83;15.63;;;9.20;72.10;;;;;;5051452;28;20075;-83
2022/03/28 08:09:40;;;;;;;34.50;17.77;;;9.20;71.20;;;;;;5052355;28;20033;-82
2022/03/28 08:12:07;;;;;;;53.05;23.45;;;9.40;69.30;;;;;;5033226;28;20441;-83
2022/03/28 08:14:33;;;;;;;40.90;17.98;;;9.60;69.50;;;;;;5048537;28;20040;-82
2022/03/28 08:16:58;;;;;;;42.97;16.60;;;9.70;68.00;;;;;;5050257;28;20025;-83
2022/03/28 08:19:25;;;;;;;31.80;15.32;;;9.70;66.80;;;;;;5050909;28;20551;-82
2022/03/28 08:21:51;;;;;;;35.70;16.55;;;10.00;64.80;;;;;;5051335;28;20533;-83
2022/03/28 08:24:17;;;;;;;31.98;15.48;;;10.20;62.70;;;;;;5049409;28;20067;-82
2022/03/28 08:26:43;;;;;;;35.42;17.20;;;10.30;62.20;;;;;;5045878;28;20091;-82
2022/03/28 08:29:09;;;;;;;39.10;17.17;;;10.40;61.10;;;;;;5051112;28;20523;-82
2022/03/28 08:31:35;;;;;;;38.80;16.95;;;10.60;62.00;;;;;;5048910;28;20029;-82
2022/03/28 08:34:00;;;;;;;33.50;16.52;;;10.80;59.80;;;;;;5050917;28;20384;-82
2022/03/28 08:36:26;;;;;;;30.52;16.13;;;11.10;62.60;;;;;;5047300;28;20449;-82
2022/03/28 08:38:52;;;;;;;30.88;16.13;;;11.30;58.50;;;;;;5050354;28;20112;-82
2022/03/28 08:41:18;;;;;;;31.92;17.55;;;11.40;57.50;;;;;;5050310;28;20025;-80
2022/03/28 08:43:45;;;;;;;39.55;15.55;;;11.60;58.10;;;;;;5051978;28;20029;-79
2022/03/28 08:46:11;;;;;;;40.75;18.85;;;11.60;55.70;;;;;;5051681;28;20083;-81
2022/03/28 08:48:40;;;;;;;38.72;16.83;;;11.60;54.40;;;;;;5048633;28;20033;-79
2022/03/28 08:51:10;;;;;;;39.38;17.70;;;11.80;58.70;;;;;;5050814;28;20029;-81
2022/03/28 08:53:37;;;;;;;34.47;16.13;;;12.00;53.80;;;;;;5049785;28;20021;-80
2022/03/28 08:56:04;;;;;;;37.22;17.85;;;12.30;54.90;;;;;;5050591;28;20025;-80
2022/03/28 08:58:30;;;;;;;43.85;16.65;;;12.30;53.20;;;;;;5049701;28;20041;-81
2022/03/28 09:00:55;;;;;;;35.88;17.42;;;12.70;52.70;;;;;;5049476;28;20039;-80
2022/03/28 09:03:41;;;;;;;38.80;17.63;;;12.60;51.30;;;;;;5048266;28;20033;-80
2022/03/28 09:06:30;;;;;;;36.58;16.35;;;12.70;51.00;;;;;;5049209;28;20060;-83
2022/03/28 09:09:18;;;;;;;35.92;17.65;;;12.80;52.40;;;;;;5046775;28;20028;-80
2022/03/28 09:11:51;;;;;;;34.40;17.25;;;12.80;51.20;;;;;;5047009;28;20035;-79
2022/03/28 09:14:30;;;;;;;39.75;19.85;;;13.10;50.40;;;;;;5049638;28;20665;-79
2022/03/28 09:17:15;;;;;;;35.55;17.85;;;13.50;50.90;;;;;;5064511;28;20029;-81
2022/03/28 09:19:58;;;;;;;36.88;18.20;;;13.50;49.70;;;;;;5049832;28;20029;-80
2022/03/28 09:22:36;;;;;;;41.72;18.17;;;13.70;49.00;;;;;;5047947;28;20191;-80
2022/03/28 09:25:03;;;;;;;40.65;17.88;;;13.70;46.60;;;;;;5048493;28;20037;-84
2022/03/28 09:27:34;;;;;;;38.95;17.08;;;13.80;49.20;;;;;;5050196;28;20124;-80
2022/03/28 09:30:08;;;;;;;33.28;17.98;;;14.20;47.70;;;;;;5046766;28;20063;-79
2022/03/28 09:32:36;;;;;;;40.17;18.63;;;14.30;47.50;;;;;;5048699;28;20124;-79
2022/03/28 09:35:10;;;;;;;35.67;17.58;;;14.40;47.00;;;;;;5048022;28;20086;-78
2022/03/28 09:37:49;;;;;;;35.33;18.02;;;14.50;45.40;;;;;;5047907;28;20488;-85
2022/03/28 09:40:40;;;;;;;35.05;18.63;;;14.80;46.30;;;;;;5048449;28;20029;-82
2022/03/28 09:43:15;;;;;;;41.50;17.95;;;14.90;44.70;;;;;;5036608;28;20021;-85
2022/03/28 09:45:43;;;;;;;37.63;18.63;;;15.00;45.80;;;;;;5050449;28;20364;-84
2022/03/28 09:48:19;;;;;;;41.22;18.95;;;15.30;46.50;;;;;;5048556;28;20033;-80
2022/03/28 09:50:48;;;;;;;41.25;19.67;;;15.40;44.40;;;;;;5049770;28;20024;-81
2022/03/28 09:53:27;;;;;;;45.60;18.42;;;15.40;43.20;;;;;;5048766;28;20033;-82
2022/03/28 09:55:59;;;;;;;41.95;17.73;;;15.40;43.20;;;;;;5046428;28;20036;-79
2022/03/28 09:58:31;;;;;;;41.03;21.30;;;15.50;41.80;;;;;;5046392;28;20143;-78
2022/03/28 10:00:59;;;;;;;41.53;18.90;;;15.60;42.60;;;;;;5049462;28;20372;-81
2022/03/28 10:03:31;;;;;;;43.90;20.73;;;15.90;42.30;;;;;;5048677;28;20771;-82
2022/03/28 10:05:58;;;;;;;40.63;19.83;;;16.10;42.70;;;;;;5048517;28;20492;-80
2022/03/28 10:08:25;;;;;;;42.42;20.17;;;16.20;41.50;;;;;;5048477;28;20657;-79
2022/03/28 10:10:51;;;;;;;41.75;20.20;;;16.30;41.50;;;;;;5049133;28;20159;-79
2022/03/28 10:13:18;;;;;;;41.15;19.25;;;16.40;39.30;;;;;;5049740;28;20036;-79
2022/03/28 10:15:43;;;;;;;43.10;20.55;;;16.10;39.30;;;;;;5049145;28;20035;-80
2022/03/28 10:18:09;;;;;;;48.80;21.60;;;16.10;39.70;;;;;;5048734;28;20028;-80
2022/03/28 10:20:41;;;;;;;41.38;18.98;;;16.10;40.00;;;;;;5049548;28;20118;-80
2022/03/28 10:23:08;;;;;;;46.78;20.88;;;16.60;41.40;;;;;;5048022;28;20048;-79
2022/03/28 10:25:34;;;;;;;44.15;20.50;;;17.10;40.50;;;;;;5049888;28;20095;-80
2022/03/28 10:28:01;;;;;;;41.53;20.80;;;17.20;39.00;;;;;;5047482;28;20722;-79
2022/03/28 10:30:28;;;;;;;37.42;19.23;;;17.30;38.10;;;;;;5047591;28;20017;-78
2022/03/28 10:33:08;;;;;;;39.67;19.60;;;17.40;37.70;;;;;;5048402;28;20326;-78
2022/03/28 10:35:33;;;;;;;36.42;20.27;;;17.40;38.10;;;;;;5044969;28;20029;-77
2022/03/28 10:38:16;;;;;;;43.40;20.42;;;17.50;39.20;;;;;;5047659;28;20041;-80
2022/03/28 10:40:59;;;;;;;38.38;20.67;;;17.50;36.60;;;;;;5047277;28;20089;-79
2022/03/28 10:43:30;;;;;;;43.92;21.35;;;17.70;38.30;;;;;;5046565;28;20078;-79
2022/03/28 10:45:58;;;;;;;45.42;20.77;;;17.80;38.40;;;;;;5048791;28;20369;-79
2022/03/28 10:48:59;;;;;;;44.20;22.58;;;17.60;36.00;;;;;;5048266;28;20036;-78
2022/03/28 10:51:29;;;;;;;45.80;19.92;;;17.90;38.70;;;;;;5040144;28;20369;-77
2022/03/28 10:53:56;;;;;;;;;;;18.50;34.80;;;;;;5049398;28;20025;-78
2022/03/28 10:56:34;;;;;;;43.45;22.35;;;18.40;34.70;;;;;;5047421;28;20372;-78
2022/03/28 10:59:08;;;;;;;45.63;21.75;;;18.60;34.50;;;;;;5045177;28;20673;-82
2022/03/28 11:01:38;;;;;;;40.50;21.55;;;19.00;32.80;;;;;;5049432;28;20048;-79
2022/03/28 11:04:03;;;;;;;39.22;20.38;;;19.40;33.40;;;;;;5049741;28;20021;-83
2022/03/28 11:06:50;;;;;;;44.13;23.02;;;20.10;31.00;;;;;;5057756;28;20031;-89
2022/03/28 11:09:48;;;;;;;68.72;27.13;;;19.90;31.60;;;;;;5058553;28;20502;-88
2022/03/28 11:12:40;;;;;;;41.35;22.67;;;19.60;34.20;;;;;;5033621;28;20519;-84
2022/03/28 11:15:12;;;;;;;45.38;21.70;;;19.70;29.40;;;;;;5050685;28;20036;-82
2022/03/28 11:17:50;;;;;;;39.20;21.30;;;19.90;30.10;;;;;;5047240;28;20084;-81
2022/03/28 11:20:20;;;;;;;41.78;22.77;;;20.40;30.60;;;;;;5047972;28;20108;-82
2022/03/28 11:22:47;;;;;;;;;;;20.30;29.00;;;;;;5048408;28;20029;-81
2022/03/28 11:25:31;;;;;;;34.72;19.77;;;21.30;29.10;;;;;;5047086;28;19948;-79
2022/03/28 11:28:06;;;;;;;35.70;17.60;;;21.10;27.30;;;;;;5045700;28;20045;-80
2022/03/28 11:30:35;;;;;;;35.78;19.17;;;20.20;24.60;;;;;;5046686;28;20017;-80
2022/03/28 11:33:07;;;;;;;39.65;18.60;;;20.40;27.30;;;;;;5049395;28;20028;-80
2022/03/28 11:35:33;;;;;;;36.22;19.30;;;20.60;24.30;;;;;;5044902;28;20029;-79
2022/03/28 11:38:01;;;;;;;36.28;20.70;;;20.90;24.70;;;;;;5048623;28;20032;-79
2022/03/28 11:40:40;;;;;;;38.97;20.17;;;21.30;25.30;;;;;;5047968;28;20045;-79
2022/03/28 11:43:07;;;;;;;43.23;21.20;;;21.90;24.40;;;;;;5050119;28;20025;-83
2022/03/28 11:45:34;;;;;;;41.35;22.13;;;21.90;26.10;;;;;;5049584;28;20098;-78
2022/03/28 11:48:02;;;;;;;37.22;20.98;;;21.00;25.90;;;;;;5047249;28;20036;-79
2022/03/28 11:50:30;;;;;;;35.67;20.40;;;21.20;24.90;;;;;;5043531;28;20021;-78
2022/03/28 11:52:57;;;;;;;34.60;20.30;;;22.10;26.80;;;;;;5038617;28;20032;-80
2022/03/28 11:55:27;;;;;;;39.88;20.08;;;23.40;25.20;;;;;;5046914;28;20082;-79
2022/03/28 12:00:39;;;;;;;40.58;21.60;;;23.50;24.40;;;;;;5044967;28;19920;-80
2022/03/28 12:03:05;;;;;;;40.20;21.77;;;23.30;23.80;;;;;;5045617;28;20028;-79
2022/03/28 12:05:35;;;;;;;42.72;24.13;;;23.00;23.80;;;;;;5046628;28;20029;-80
2022/03/28 12:08:13;;;;;;;37.38;20.67;;;22.50;23.00;;;;;;5045370;28;20033;-80
2022/03/28 12:10:42;;;;;;;39.92;21.80;;;23.10;23.30;;;;;;5044913;28;20033;-80
2022/03/28 12:13:09;;;;;;;36.80;21.63;;;23.80;23.40;;;;;;5045109;28;20029;-78
2022/03/28 12:15:38;;;;;;;41.72;23.15;;;23.00;22.70;;;;;;5045862;28;20036;-78
2022/03/28 12:18:09;;;;;;;48.67;24.30;;;23.50;22.10;;;;;;5045043;28;20040;-78
2022/03/28 12:20:40;;;;;;;42.55;24.50;;;23.50;22.30;;;;;;5047041;28;20362;-78
2022/03/28 12:23:07;;;;;;;41.47;22.98;;;23.20;22.80;;;;;;5047128;28;20477;-77
2022/03/28 12:25:36;;;;;;;40.67;22.95;;;23.20;22.20;;;;;;5046514;28;20468;-77
2022/03/28 12:28:11;;;;;;;45.72;26.65;;;23.10;22.90;;;;;;5040513;28;20630;-78
2022/03/28 12:30:50;;;;;;;45.85;24.17;;;22.50;24.10;;;;;;5046526;28;20037;-78
2022/03/28 12:33:16;;;;;;;46.90;24.42;;;23.50;23.60;;;;;;5046563;28;20104;-77
2022/03/28 12:35:48;;;;;;;44.80;24.13;;;23.70;21.70;;;;;;5048353;28;20441;-82
2022/03/28 12:38:17;;;;;;;44.00;25.00;;;23.90;23.80;;;;;;5049700;28;20025;-82
2022/03/28 12:40:44;;;;;;;42.70;24.52;;;24.20;21.60;;;;;;5049470;28;20032;-83
2022/03/28 12:43:11;;;;;;;42.75;25.25;;;23.40;21.70;;;;;;5048576;28;20043;-83
2022/03/28 12:45:42;;;;;;;41.03;23.60;;;23.50;22.90;;;;;;5048150;28;20041;-83